If you wish to contribute or participate in the discussions about articles you are invited to join SKYbrary as a registered user

 Actions

Comandante Espora Airport

From SKYbrary Wiki

SAZB
Airport
ICAO: SAZB – IATA: BHI
Summary
Name Comandante Espora Airport
Region South America and Caribbean
Territory Argentina AR.gif
Location Bahia Blanca, Buenos Aires
Serving Bahia Blanca
Elevation 74.981 m
246 ft
246 ft74.981 m
Type medium airport
Coordinates 38° 43' 29.88" S, 62° 10' 9.54" W
Runways
Designator Length Width Surface ROPS
'16L'/'34R' 2615 m8,579.396 ft
60 m196.85 ft
ASP /
'16R'/'34L' 1498 m4,914.698 ft
30 m98.425 ft
ASP /
6/24 2030 m6,660.105 ft
33 m108.268 ft
ASP yes/yes


METAR
Observation SAZB 200347Z 33025G41KT 3000 VCTS DS SCT035 FEW050CB OVC070 26/17 Q1008 RMK CB OBS TO NW
Station Bahia Blanca Aerodrome
Date/Time 20 November 2019 03:47:00
Wind direction 330°
Wind speed 25 kts
Lowest cloud amount scattered clouds
Temperature 26°C
Dew point 17°C
Humidity 57%
QNH 1008 hPa
Weather condition n/a

Domestic airport serving Bahia Blanca, Argentina.

Climatology

Warm, oceanic climate (Köppen climate classification Cfa).

Maps

Terrain

Loading map...

Airport Layout

Loading map...


Accidents & Serious Incidents at or in vicinity of SAZB

None on SKYbrary